Flight Track Log - Related Links

Times and Time Zones

All times are in EDT time to prevent confusion due to time zone crossing. See the UAL582 flight status page for this flight to view local times or setup timezone preferences in your user account.

Time Position Orientation Groundspeed Altitude Reporting Facility
EDT Latitude Longitude Course Direction KTS MPH feet Rate Location/Type
Sat 05:43:23 PM 29.9614 -95.3411 41° Northeast 153 176 900  Level Houston Center
Sat 05:44:30 PM 29.9936 -95.3036 45° Northeast 238 274 2,700 1,651 Climbing Houston Center
Sat 05:45:12 PM 30.0319 -95.3042 359° North 240 276 3,900 1,904 Climbing Houston Center
Sat 05:46:00 PM 30.3902 -95.1716 23° Northeast  Level FlightAware Approximate
Sat 05:46:14 PM 30.1242 -95.3039 360° North 273 314 6,000  Level Houston Center
Sat 05:47:00 PM 30.4877 -95.1174 27° Northeast  Level FlightAware Approximate
Sat 05:47:16 PM 30.2003 -95.2822 14° North 287 330 9,700  Level Houston Center
Sat 05:48:00 PM 30.5857 -95.0643 41° Northeast  Level FlightAware Approximate
Sat 05:48:17 PM 30.2775 -95.2408 25° Northeast 313 360 11,800  Level Houston Center
Sat 05:49:19 PM 30.3669 -95.1936 24° Northeast 350 403 14,500 2,537 Climbing Houston Center
Sat 05:50:20 PM 30.4606 -95.1431 25° Northeast 355 409 17,000 2,341 Climbing Houston Center
Sat 05:51:22 PM 30.5550 -95.0964 23° Northeast 367 422 19,300 2,032 Climbing Houston Center
Sat 05:52:24 PM 30.6483 -95.0386 28° Northeast 378 435 21,200 1,805 Climbing Houston Center
Sat 05:53:25 PM 30.7439 -94.9797 28° Northeast 388 447 23,000 1,805 Climbing Houston Center
Sat 05:54:27 PM 30.8417 -94.9189 28° Northeast 396 456 24,900 1,854 Climbing Houston Center
Sat 05:55:28 PM 30.9594 -94.8447 28° Northeast 404 465 26,800 1,756 Climbing Houston Center
Sat 05:56:30 PM 31.0586 -94.7825 28° Northeast 405 466 28,500 1,268 Climbing Houston Center
Sat 05:57:31 PM 31.1692 -94.7144 28° Northeast 430 495 29,400 1,317 Climbing Houston Center
Sat 05:58:33 PM 31.2725 -94.6422 31° Northeast 436 502 31,200 1,415 Climbing Houston Center
Sat 05:59:34 PM 31.3606 -94.5794 31° Northeast 430 495 32,300 1,317 Climbing Houston Center
Sat 06:00:36 PM 31.4819 -94.4964 30° Northeast 423 487 33,900 1,317 Climbing Houston Center
Sat 06:01:37 PM 31.5819 -94.4272 31° Northeast 420 483 35,000 1,073 Climbing Houston Center
Sat 06:02:39 PM 31.6847 -94.3561 30° Northeast 425 489 36,100 927 Climbing Houston Center
Sat 06:03:40 PM 31.7881 -94.2836 31° Northeast 430 495 36,900 829 Climbing Houston Center
Sat 06:04:42 PM 31.8928 -94.2100 31° Northeast 434 499 37,800 878 Climbing Houston Center
Sat 06:05:43 PM 32.0033 -94.1511 24° Northeast 436 502 38,700 581 Climbing Houston Center
Sat 06:06:46 PM 32.1406 -94.0939 19° North 429 494 39,000 146 Climbing Fort Worth Center
Sat 06:07:46 PM 32.2372 -94.0436 24° Northeast 429 494 39,000  Level Fort Worth Center
Sat 06:08:46 PM 32.3508 -93.9953 20° North 429 494 39,000  Level Fort Worth Center
Sat 06:09:46 PM 32.4642 -93.9467 20° North 424 488 39,000  Level Fort Worth Center
Sat 06:10:46 PM 32.5797 -93.8931 21° North 429 494 39,000  Level Fort Worth Center
Sat 06:11:46 PM 32.6931 -93.8439 20° North 429 494 39,000  Level Fort Worth Center
Sat 06:12:46 PM 32.8064 -93.7925 21° North 429 494 39,000  Level Fort Worth Center
Sat 06:13:46 PM 32.9197 -93.7433 20° North 429 494 39,000  Level Fort Worth Center
Sat 06:14:46 PM 33.0331 -93.6917 21° North 429 494 39,000  Level Fort Worth Center
Sat 06:15:46 PM 33.1483 -93.6397 21° North 429 494 39,000  Level Fort Worth Center
Sat 06:16:46 PM 33.2636 -93.5875 21° North 429 494 39,000 50 Level Fort Worth Center
Sat 06:17:46 PM 33.3831 -93.5353 20° North 442 509 39,100 50 Climbing Fort Worth Center
Sat 06:18:46 PM 33.5108 -93.4797 20° North 442 509 39,100 -50 Level Fort Worth Center
Sat 06:19:46 PM 33.6239 -93.4297 20° North 442 509 39,000 -60 Descending Fort Worth Center
Sat 06:20:26 PM 33.6994 -93.3983 19° North 442 509 39,000  Level Memphis Center
Sat 06:21:26 PM 33.8136 -93.3472 20° North 458 527 39,000  Level Memphis Center
Sat 06:22:26 PM 33.9275 -93.2936 21° North 445 512 39,000  Level Memphis Center
Sat 06:23:26 PM 34.0414 -93.2450 19° North 437 503 39,000 50 Level Memphis Center
Sat 06:24:26 PM 34.1553 -93.1908 21° North 432 497 39,100  Climbing Memphis Center
Sat 06:25:26 PM 34.2692 -93.1369 21° North 432 497 39,000 -50 Descending Memphis Center
Sat 06:26:26 PM 34.3661 -93.0897 22° Northeast 427 491 39,000  Level Memphis Center
Sat 06:27:26 PM 34.4822 -93.0356 21° North 427 491 39,000  Level Memphis Center
Sat 06:28:26 PM 34.5939 -92.9833 21° North 427 491 39,000  Level Memphis Center
Sat 06:29:26 PM 34.7056 -92.9289 22° Northeast 427 491 39,000  Level Memphis Center
Sat 06:30:26 PM 34.8150 -92.8817 20° North 427 491 39,000  Level Memphis Center
Sat 06:31:26 PM 34.9267 -92.8292 21° North 427 491 39,000  Level Memphis Center
Sat 06:32:26 PM 35.0361 -92.7767 21° North 421 484 39,000  Level Memphis Center
Sat 06:33:26 PM 35.1603 -92.7217 20° North 421 484 39,000  Level Memphis Center
Sat 06:34:26 PM 35.2572 -92.6711 23° Northeast 421 484 39,000  Level Memphis Center
Sat 06:35:26 PM 35.3708 -92.6156 22° Northeast 421 484 39,000  Level Memphis Center
Sat 06:36:26 PM 35.4803 -92.5675 20° North 421 484 39,000 50 Level Memphis Center
Sat 06:37:26 PM 35.5917 -92.5144 21° North 421 484 39,100  Climbing Memphis Center
Sat 06:38:26 PM 35.7008 -92.4636 21° North 421 484 39,000 -50 Descending Memphis Center
Sat 06:39:26 PM 35.8122 -92.4100 21° North 416 479 39,000  Level Memphis Center
Sat 06:40:26 PM 35.9322 -92.3542 21° North 416 479 39,000  Level Memphis Center
Sat 06:41:26 PM 36.0392 -92.3028 21° North 416 479 39,000  Level Memphis Center
Sat 06:42:26 PM 36.1464 -92.2486 22° Northeast 416 479 39,000  Level Memphis Center
Sat 06:43:26 PM 36.2556 -92.1997 20° North 416 479 39,000  Level Memphis Center
Sat 06:44:26 PM 36.3628 -92.1481 21° North 416 479 39,000  Level Memphis Center
Sat 06:45:26 PM 36.4697 -92.0961 21° North 416 479 39,000  Level Memphis Center
Sat 06:46:26 PM 36.5619 -92.0492 22° Northeast 416 479 39,000  Level Memphis Center
Sat 06:47:43 PM 36.7150 -91.9694 23° Northeast 414 476 39,000  Level Kansas City Center
Sat 06:48:44 PM 36.8225 -91.9167 21° North 414 476 39,000 49 Level Kansas City Center
Sat 06:49:46 PM 36.9308 -91.8631 22° Northeast 417 480 39,100  Climbing Kansas City Center
Sat 06:50:48 PM 37.0389 -91.8089 22° Northeast 418 481 39,000 -49 Descending Kansas City Center
Sat 06:51:49 PM 37.1436 -91.7586 21° North 410 472 39,000  Level Kansas City Center
Sat 06:52:51 PM 37.2489 -91.7092 20° North 405 466 39,000  Level Kansas City Center
Sat 06:53:52 PM 37.3542 -91.6556 22° Northeast 406 467 39,000  Level Kansas City Center
Sat 06:54:54 PM 37.4586 -91.6019 22° Northeast 406 467 39,000  Level Kansas City Center
Sat 06:55:55 PM 37.5844 -91.5381 22° Northeast 407 468 39,000  Level Kansas City Center
Sat 06:56:57 PM 37.6900 -91.4850 22° Northeast 407 468 39,000  Level Kansas City Center
Sat 06:57:58 PM 37.7981 -91.4306 22° Northeast 412 474 39,000  Level Kansas City Center
Sat 06:59:00 PM 37.9064 -91.3761 22° Northeast 417 480 39,000  Level Kansas City Center
Sat 07:00:02 PM 38.0136 -91.3217 22° Northeast 416 479 39,000  Level Kansas City Center
Sat 07:01:03 PM 38.1203 -91.2669 22° Northeast 415 478 39,000  Level Kansas City Center
Sat 07:02:05 PM 38.2297 -91.2117 22° Northeast 415 478 39,000  Level Kansas City Center
Sat 07:03:06 PM 38.3356 -91.1567 22° Northeast 412 474 39,000  Level Kansas City Center
Sat 07:04:08 PM 38.4442 -91.1019 22° Northeast 416 479 39,000  Level Kansas City Center
Sat 07:05:09 PM 38.5550 -91.0450 22° Northeast 423 487 39,000  Level Kansas City Center
Sat 07:06:11 PM 38.6864 -90.9767 22° Northeast 423 487 39,000  Level Kansas City Center
Sat 07:07:12 PM 38.7911 -90.9206 23° Northeast 411 473 39,000  Level Kansas City Center
Sat 07:08:14 PM 38.8958 -90.8644 23° Northeast 406 467 39,000  Level Kansas City Center
Sat 07:09:15 PM 39.0003 -90.8092 22° Northeast 403 464 39,000 -878 Level Kansas City Center
Sat 07:10:17 PM 39.1117 -90.7753 13° North 413 475 37,200 -1,512 Descending Kansas City Center
Sat 07:11:18 PM 39.2208 -90.7636 North 395 455 35,900 -1,073 Descending Kansas City Center
Sat 07:12:20 PM 39.3269 -90.7844 351° North 389 448 35,000 -976 Descending Kansas City Center
Sat 07:13:21 PM 39.4331 -90.8144 348° North 392 451 33,900 -976 Descending Kansas City Center
Sat 07:14:23 PM 39.5367 -90.8397 349° North 383 441 33,000 -439 Descending Kansas City Center
Sat 07:15:24 PM 39.6444 -90.8681 349° North 390 449 33,000  Level Kansas City Center
Sat 07:16:26 PM 39.7667 -90.8714 359° North 400 460 33,000  Level Kansas City Center
Sat 07:17:27 PM 39.8603 -90.7958 32° Northeast 398 458 33,000  Level Kansas City Center
Sat 07:18:29 PM 39.9528 -90.7119 35° Northeast 403 464 33,000  Level Kansas City Center
Sat 07:19:30 PM 40.0444 -90.6261 36° Northeast 405 466 33,000  Level Kansas City Center
Sat 07:20:32 PM 40.1406 -90.5419 34° Northeast 411 473 33,000  Level Kansas City Center
Sat 07:21:33 PM 40.2681 -90.4764 21° North 414 476 33,000  Level Kansas City Center
Sat 07:22:35 PM 40.3750 -90.4342 17° North 405 466 33,000  Level Kansas City Center
Sat 07:23:23 PM 40.4608 -90.3911 21° North 407 468 33,000 -330 Level Chicago Center
Sat 07:24:24 PM 40.5478 -90.2936 40° Northeast 413 475 32,400 -1,073 Descending Chicago Center
Sat 07:25:26 PM 40.6378 -90.1758 45° Northeast 425 489 30,800 -1,500 Descending Chicago Center
Sat 07:26:28 PM 40.7308 -90.0739 40° Northeast 436 502 29,300 -1,268 Descending Chicago Center
Sat 07:27:29 PM 40.8247 -89.9775 38° Northeast 429 494 28,200 -1,171 Descending Chicago Center
Sat 07:28:31 PM 40.9100 -89.8772 42° Northeast 419 482 26,900 -1,306 Descending Chicago Center
Sat 07:29:33 PM 41.0078 -89.7675 40° Northeast 444 511 25,500 -1,171 Descending Chicago Center
Sat 07:30:34 PM 41.1008 -89.6594 41° Northeast 443 510 24,500 -1,171 Descending Chicago Center
Sat 07:31:36 PM 41.1811 -89.5408 48° Northeast 435 501 23,100 -1,610 Descending Chicago Center
Sat 07:32:37 PM 41.2367 -89.4031 62° Northeast 421 484 21,200 -1,902 Descending Chicago Center
Sat 07:33:39 PM 41.2889 -89.2717 62° Northeast 404 465 19,200 -2,032 Descending Chicago Center
Sat 07:34:41 PM 41.3408 -89.1381 63° Northeast 361 415 17,000 -2,049 Descending Chicago Center
Sat 07:35:42 PM 41.3469 -89.0114 86° East 352 405 15,000 -1,902 Descending Chicago Center
Sat 07:36:44 PM 41.3483 -88.8828 89° East 349 402 13,100 -1,756 Descending Chicago Center
Sat 07:37:45 PM 41.3631 -88.7658 80° East 338 389 11,400 -1,024 Descending Chicago Center
Sat 07:38:47 PM 41.4406 -88.6617 45° Northeast 333 383 11,000 -194 Descending Chicago Center
Sat 07:39:49 PM 41.5058 -88.5733 45° Northeast 335 386 11,000 -293 Level Chicago Center
Sat 07:40:50 PM 41.5683 -88.4911 45° Northeast 317 365 10,400 -976 Descending Chicago Center
Sat 07:41:52 PM 41.6253 -88.4125 46° Northeast 297 342 9,000 -1,161 Descending Chicago Center
Sat 07:42:54 PM 41.6814 -88.3378 45° Northeast 288 331 8,000 -927 Descending Chicago Center
Sat 07:43:55 PM 41.7561 -88.3214 North 288 331 7,100 -488 Descending Chicago Center
Sat 07:44:57 PM 41.8331 -88.3222 360° North 279 321 7,000 -629 Descending Chicago Center
Sat 07:45:59 PM 41.9217 -88.3022 10° North 272 313 5,800 -1,171 Descending Chicago Center
Sat 07:47:00 PM 41.9653 -88.2322 50° Northeast 267 307 4,600 -1,180 Descending Chicago Center

Login

Don't have an account? Register now (free) for customized features, flight alerts, and more!